Impacts METAR Board INFO
IDs:

KDFW - Dallas-Ft Worth Intl, TX, US

Updated at: 1806 UTC 18 Feb 2018
Potential Impact None Slight Moderate High
Time18/06Z 18/07Z 18/08Z 18/09Z 18/10Z 18/11Z 18/12Z 18/13Z 18/14Z 18/15Z 18/16Z 18/17Z 18/18Z
VIS10 9 9 7 9 10 9 7 0.5 0.5 0.5 1.5 2
CIG230 240 230 220 -- 16 10 6 3 2 2 3 5
CoverBKNBKNBKNBKNSCTBKNBKNOVCOVCOVCOVCOVCOVC
FltCatVFRVFRVFRVFRVFRMVFRMVFRIFRLIFRLIFRLIFRLIFRIFR
WX------MIFG--------BR-DZ FG-DZ BRBRBR
WDir90110120010010090140150140140130170
WSpd4 4 3 0 6 4 3 7 7 8 7 6 9
WGst-- -- -- -- -- -- -- -- -- -- -- -- --
Raw hourly METARs
KDFW 180553Z 09004KT 10SM BKN230 BKN300 11/07 A3017 RMK AO2 SLP215 T01060067 10161 20100 401940061 58001
KDFW 180653Z 11004KT 9SM BKN240 BKN300 11/08 A3016 RMK AO2 SLP212 T01060078
KDFW 180753Z 12003KT 9SM BKN230 BKN300 10/08 A3016 RMK AO2 SLP209 T01000078
KDFW 180853Z 00000KT 7SM MIFG BKN220 BKN300 09/07 A3015 RMK AO2 SLP207 T00890072 56007
KDFW 180953Z 10006KT 9SM FEW012 SCT230 SCT300 08/07 A3014 RMK AO2 SLP204 T00830067
KDFW 181053Z 10004KT 10SM BKN016 BKN250 09/08 A3013 RMK AO2 SLP201 T00940078
KDFW 181201Z 09003KT 9SM BKN010 BKN016 BKN240 09/07 A3013 RMK AO2 T00940072
KDFW 181253Z 14007KT 7SM OVC006 09/08 A3013 RMK AO2 SLP201 T00940078
KDFW 181356Z 15007KT 1/2SM R17C/P6000FT BR OVC003 09/08 A3013 RMK AO2 SFC VIS 3 T00890083
KDFW 181453Z 14008KT 1/2SM R17C/3500V4000FT -DZ FG OVC002 09/09 A3013 RMK AO2 DZB41 SLP200 P0000 60000 T00940089 58000
KDFW 181553Z 14007KT 1/2SM R17C/4500V5500FT -DZ BR OVC002 11/09 A3013 RMK AO2 SFC VIS 3/4 SLP199 P0000 T01060094
KDFW 181653Z 13006KT 1 1/2SM BR OVC003 11/10 A3011 RMK AO2 SFC VIS 3 DZE51 SLP195 P0000 T01110100
KDFW 181753Z 17009KT 2SM BR OVC005 12/11 A3010 RMK AO2 SFC VIS 6 SLP190 60000 T01220106 10122 20089 58010